Nolanville, Texas
Current Conditions -  °F | °C
As of 11:35 PM on Sunday 21 Dec 2014 (Local Time) from KILE Reporting Station
Overcast Overcast  
Wind Chill: 54°   Ceiling: 1700
Heat Index: 54°   Visibility: 10mi
Dew Point: 45°   Wind: 17mph
Humidity: 72%   Direction: 180°S
Pressure: 29.77"   Gusts: 23mph
Location:  31.08°N, 97.61°W
Report Text: KILE 220535Z AUTO 18015G20KT 10SM OVC017 12/07 A2977 RMK AO1
Loading
Personal Weather Stations






























Interactive Weather Map New forecast layout! Learn more

10-Day Weather Forecast

Advertisements
Track Severe Weather on mobile